sensor_id;sensor_type;location;lat;lon;timestamp;temperature;humidity
16974;DHT22;8603;46.944;7.412;2023-07-31T00:01:43;13.40;99.90
16974;DHT22;8603;46.944;7.412;2023-07-31T00:04:09;13.30;99.90
16974;DHT22;8603;46.944;7.412;2023-07-31T00:06:34;13.30;99.90
16974;DHT22;8603;46.944;7.412;2023-07-31T00:09:00;13.20;99.90
16974;DHT22;8603;46.944;7.412;2023-07-31T00:11:25;13.20;99.90
16974;DHT22;8603;46.944;7.412;2023-07-31T00:13:53;13.10;99.90
16974;DHT22;8603;46.944;7.412;2023-07-31T00:16:18;13.10;99.90
16974;DHT22;8603;46.944;7.412;2023-07-31T00:18:44;13.10;99.90
16974;DHT22;8603;46.944;7.412;2023-07-31T00:21:10;13.10;99.90
16974;DHT22;8603;46.944;7.412;2023-07-31T00:23:35;13.10;99.90
16974;DHT22;8603;46.944;7.412;2023-07-31T00:26:01;13.10;99.90
16974;DHT22;8603;46.944;7.412;2023-07-31T00:28:26;13.00;99.90
16974;DHT22;8603;46.944;7.412;2023-07-31T00:30:52;13.00;99.90
16974;DHT22;8603;46.944;7.412;2023-07-31T00:33:18;13.00;99.90
16974;DHT22;8603;46.944;7.412;2023-07-31T00:35:43;12.90;99.90
16974;DHT22;8603;46.944;7.412;2023-07-31T00:38:09;12.90;99.90
16974;DHT22;8603;46.944;7.412;2023-07-31T00:40:36;12.90;99.90
16974;DHT22;8603;46.944;7.412;2023-07-31T00:43:02;12.90;99.90
16974;DHT22;8603;46.944;7.412;2023-07-31T00:45:29;12.80;99.90
16974;DHT22;8603;46.944;7.412;2023-07-31T00:47:54;12.80;99.90
16974;DHT22;8603;46.944;7.412;2023-07-31T00:50:22;12.80;99.90
16974;DHT22;8603;46.944;7.412;2023-07-31T00:52:47;12.70;99.90
16974;DHT22;8603;46.944;7.412;2023-07-31T00:55:13;12.70;99.90
16974;DHT22;8603;46.944;7.412;2023-07-31T00:57:41;12.70;99.90
16974;DHT22;8603;46.944;7.412;2023-07-31T01:00:07;12.70;99.90
16974;DHT22;8603;46.944;7.412;2023-07-31T01:02:33;12.70;99.90
16974;DHT22;8603;46.944;7.412;2023-07-31T01:05:00;12.60;99.90
16974;DHT22;8603;46.944;7.412;2023-07-31T01:07:52;12.60;99.90
16974;DHT22;8603;46.944;7.412;2023-07-31T01:10:40;12.60;99.90
16974;DHT22;8603;46.944;7.412;2023-07-31T01:13:07;12.60;99.90
16974;DHT22;8603;46.944;7.412;2023-07-31T01:15:33;12.50;99.90
16974;DHT22;8603;46.944;7.412;2023-07-31T01:17:59;12.50;99.90
16974;DHT22;8603;46.944;7.412;2023-07-31T01:20:26;12.40;99.90
16974;DHT22;8603;46.944;7.412;2023-07-31T01:28:31;12.30;99.90
16974;DHT22;8603;46.944;7.412;2023-07-31T01:31:00;12.20;99.90
16974;DHT22;8603;46.944;7.412;2023-07-31T01:33:27;12.20;99.90
16974;DHT22;8603;46.944;7.412;2023-07-31T01:35:54;12.20;99.90
16974;DHT22;8603;46.944;7.412;2023-07-31T01:38:21;12.10;99.90
16974;DHT22;8603;46.944;7.412;2023-07-31T01:40:51;12.10;99.90
16974;DHT22;8603;46.944;7.412;2023-07-31T01:43:17;12.00;99.90
16974;DHT22;8603;46.944;7.412;2023-07-31T01:45:43;12.00;99.90
16974;DHT22;8603;46.944;7.412;2023-07-31T01:48:08;12.00;99.90
16974;DHT22;8603;46.944;7.412;2023-07-31T01:50:34;12.00;99.90
16974;DHT22;8603;46.944;7.412;2023-07-31T01:52:59;12.00;99.90
16974;DHT22;8603;46.944;7.412;2023-07-31T01:55:25;11.90;99.90
16974;DHT22;8603;46.944;7.412;2023-07-31T01:57:50;11.90;99.90
16974;DHT22;8603;46.944;7.412;2023-07-31T02:00:17;11.90;99.90
16974;DHT22;8603;46.944;7.412;2023-07-31T02:02:43;11.80;99.90
16974;DHT22;8603;46.944;7.412;2023-07-31T02:05:09;11.80;99.90
16974;DHT22;8603;46.944;7.412;2023-07-31T02:07:34;11.70;99.90
16974;DHT22;8603;46.944;7.412;2023-07-31T02:10:00;11.80;99.90
16974;DHT22;8603;46.944;7.412;2023-07-31T02:12:25;11.80;99.90
16974;DHT22;8603;46.944;7.412;2023-07-31T02:14:51;11.70;99.90
16974;DHT22;8603;46.944;7.412;2023-07-31T02:17:16;11.70;99.90
16974;DHT22;8603;46.944;7.412;2023-07-31T02:19:42;11.70;99.90
16974;DHT22;8603;46.944;7.412;2023-07-31T02:22:08;11.70;99.90
16974;DHT22;8603;46.944;7.412;2023-07-31T02:24:33;11.60;99.90
16974;DHT22;8603;46.944;7.412;2023-07-31T02:26:59;11.60;99.90
16974;DHT22;8603;46.944;7.412;2023-07-31T02:29:24;11.60;99.90
16974;DHT22;8603;46.944;7.412;2023-07-31T02:31:50;11.60;99.90
16974;DHT22;8603;46.944;7.412;2023-07-31T02:34:15;11.60;99.90
16974;DHT22;8603;46.944;7.412;2023-07-31T02:36:41;11.50;99.90
16974;DHT22;8603;46.944;7.412;2023-07-31T02:39:06;11.50;99.90
16974;DHT22;8603;46.944;7.412;2023-07-31T02:41:32;11.50;99.90
16974;DHT22;8603;46.944;7.412;2023-07-31T02:43:57;11.50;99.90
16974;DHT22;8603;46.944;7.412;2023-07-31T02:46:23;11.50;99.90
16974;DHT22;8603;46.944;7.412;2023-07-31T02:48:50;11.50;99.90
16974;DHT22;8603;46.944;7.412;2023-07-31T02:51:16;11.50;99.90
16974;DHT22;8603;46.944;7.412;2023-07-31T02:53:42;11.50;99.90
16974;DHT22;8603;46.944;7.412;2023-07-31T02:56:07;11.50;99.90
16974;DHT22;8603;46.944;7.412;2023-07-31T02:58:33;11.50;99.90
16974;DHT22;8603;46.944;7.412;2023-07-31T03:00:59;11.50;99.90
16974;DHT22;8603;46.944;7.412;2023-07-31T03:03:24;11.40;99.90
16974;DHT22;8603;46.944;7.412;2023-07-31T03:05:50;11.40;99.90
16974;DHT22;8603;46.944;7.412;2023-07-31T03:08:15;11.50;99.90
16974;DHT22;8603;46.944;7.412;2023-07-31T03:10:41;11.40;99.90
16974;DHT22;8603;46.944;7.412;2023-07-31T03:13:06;11.40;99.90
16974;DHT22;8603;46.944;7.412;2023-07-31T03:15:32;11.40;99.90
16974;DHT22;8603;46.944;7.412;2023-07-31T03:17:58;11.40;99.90
16974;DHT22;8603;46.944;7.412;2023-07-31T03:20:23;11.40;99.90
16974;DHT22;8603;46.944;7.412;2023-07-31T03:22:49;11.40;99.90
16974;DHT22;8603;46.944;7.412;2023-07-31T03:25:14;11.40;99.90
16974;DHT22;8603;46.944;7.412;2023-07-31T03:27:40;11.40;99.90
16974;DHT22;8603;46.944;7.412;2023-07-31T03:30:07;11.40;99.90
16974;DHT22;8603;46.944;7.412;2023-07-31T03:32:33;11.40;99.90
16974;DHT22;8603;46.944;7.412;2023-07-31T03:34:59;11.40;99.90
16974;DHT22;8603;46.944;7.412;2023-07-31T03:37:24;11.40;99.90
16974;DHT22;8603;46.944;7.412;2023-07-31T03:39:50;11.40;99.90
16974;DHT22;8603;46.944;7.412;2023-07-31T03:42:15;11.40;99.90
16974;DHT22;8603;46.944;7.412;2023-07-31T03:44:41;11.30;99.90
16974;DHT22;8603;46.944;7.412;2023-07-31T03:47:06;11.30;99.90
16974;DHT22;8603;46.944;7.412;2023-07-31T03:49:32;11.30;99.90
16974;DHT22;8603;46.944;7.412;2023-07-31T03:51:57;11.30;99.90
16974;DHT22;8603;46.944;7.412;2023-07-31T03:54:23;11.30;99.90
16974;DHT22;8603;46.944;7.412;2023-07-31T03:56:49;11.30;99.90
16974;DHT22;8603;46.944;7.412;2023-07-31T03:59:14;11.30;99.90
16974;DHT22;8603;46.944;7.412;2023-07-31T04:01:40;11.40;99.90
16974;DHT22;8603;46.944;7.412;2023-07-31T04:04:05;11.40;99.90
16974;DHT22;8603;46.944;7.412;2023-07-31T04:06:31;11.40;99.90
16974;DHT22;8603;46.944;7.412;2023-07-31T04:08:56;11.40;99.90
16974;DHT22;8603;46.944;7.412;2023-07-31T04:11:22;11.40;99.90
16974;DHT22;8603;46.944;7.412;2023-07-31T04:13:47;11.30;99.90
16974;DHT22;8603;46.944;7.412;2023-07-31T04:16:13;11.40;99.90
16974;DHT22;8603;46.944;7.412;2023-07-31T04:18:38;11.30;99.90
16974;DHT22;8603;46.944;7.412;2023-07-31T04:21:04;11.40;99.90
16974;DHT22;8603;46.944;7.412;2023-07-31T04:23:29;11.40;99.90
16974;DHT22;8603;46.944;7.412;2023-07-31T04:25:55;11.40;99.90
16974;DHT22;8603;46.944;7.412;2023-07-31T04:28:21;11.40;99.90
16974;DHT22;8603;46.944;7.412;2023-07-31T04:30:47;11.50;99.90
16974;DHT22;8603;46.944;7.412;2023-07-31T04:33:13;11.50;99.90
16974;DHT22;8603;46.944;7.412;2023-07-31T04:35:38;11.50;99.90
16974;DHT22;8603;46.944;7.412;2023-07-31T04:38:04;11.60;99.90
16974;DHT22;8603;46.944;7.412;2023-07-31T04:40:29;11.60;99.90
16974;DHT22;8603;46.944;7.412;2023-07-31T04:42:55;11.70;99.90
16974;DHT22;8603;46.944;7.412;2023-07-31T04:45:20;11.80;99.90
16974;DHT22;8603;46.944;7.412;2023-07-31T04:47:46;11.90;99.90
16974;DHT22;8603;46.944;7.412;2023-07-31T04:50:12;11.90;99.90
16974;DHT22;8603;46.944;7.412;2023-07-31T04:52:37;12.00;99.90
16974;DHT22;8603;46.944;7.412;2023-07-31T04:55:03;12.10;99.90
16974;DHT22;8603;46.944;7.412;2023-07-31T04:57:28;12.10;99.90
16974;DHT22;8603;46.944;7.412;2023-07-31T04:59:54;12.30;99.90
16974;DHT22;8603;46.944;7.412;2023-07-31T05:02:19;12.30;99.90
16974;DHT22;8603;46.944;7.412;2023-07-31T05:04:45;12.40;99.90
16974;DHT22;8603;46.944;7.412;2023-07-31T05:07:11;12.50;99.90
16974;DHT22;8603;46.944;7.412;2023-07-31T05:09:36;12.60;99.90
16974;DHT22;8603;46.944;7.412;2023-07-31T05:12:04;12.70;99.90
16974;DHT22;8603;46.944;7.412;2023-07-31T05:14:29;12.80;99.90
16974;DHT22;8603;46.944;7.412;2023-07-31T05:16:55;12.90;99.90
16974;DHT22;8603;46.944;7.412;2023-07-31T05:19:20;13.00;99.90
16974;DHT22;8603;46.944;7.412;2023-07-31T05:21:46;13.10;99.90
16974;DHT22;8603;46.944;7.412;2023-07-31T05:24:11;13.20;99.90
16974;DHT22;8603;46.944;7.412;2023-07-31T05:26:37;13.40;99.90
16974;DHT22;8603;46.944;7.412;2023-07-31T05:29:03;13.50;99.90
16974;DHT22;8603;46.944;7.412;2023-07-31T05:31:29;13.60;99.90
16974;DHT22;8603;46.944;7.412;2023-07-31T05:33:54;13.80;99.90
16974;DHT22;8603;46.944;7.412;2023-07-31T05:36:20;13.90;99.90
16974;DHT22;8603;46.944;7.412;2023-07-31T05:38:45;14.00;99.90
16974;DHT22;8603;46.944;7.412;2023-07-31T05:41:12;14.10;99.90
16974;DHT22;8603;46.944;7.412;2023-07-31T05:43:38;14.20;99.90
16974;DHT22;8603;46.944;7.412;2023-07-31T05:46:03;14.20;99.90
16974;DHT22;8603;46.944;7.412;2023-07-31T05:48:29;14.30;99.90
16974;DHT22;8603;46.944;7.412;2023-07-31T05:50:55;14.50;99.90
16974;DHT22;8603;46.944;7.412;2023-07-31T05:53:20;14.50;99.90
16974;DHT22;8603;46.944;7.412;2023-07-31T05:55:46;14.70;99.90
16974;DHT22;8603;46.944;7.412;2023-07-31T05:58:11;14.90;99.90
16974;DHT22;8603;46.944;7.412;2023-07-31T06:00:37;15.20;99.90
16974;DHT22;8603;46.944;7.412;2023-07-31T06:03:02;15.50;99.90
16974;DHT22;8603;46.944;7.412;2023-07-31T06:05:28;15.80;99.90
16974;DHT22;8603;46.944;7.412;2023-07-31T06:07:55;16.10;99.90
16974;DHT22;8603;46.944;7.412;2023-07-31T06:10:21;16.40;99.90
16974;DHT22;8603;46.944;7.412;2023-07-31T06:12:47;16.60;99.90
16974;DHT22;8603;46.944;7.412;2023-07-31T06:15:12;16.80;99.90
16974;DHT22;8603;46.944;7.412;2023-07-31T06:17:38;16.90;99.90
16974;DHT22;8603;46.944;7.412;2023-07-31T06:20:05;17.00;99.90
16974;DHT22;8603;46.944;7.412;2023-07-31T06:22:31;16.80;99.90
16974;DHT22;8603;46.944;7.412;2023-07-31T06:24:56;17.60;99.90
16974;DHT22;8603;46.944;7.412;2023-07-31T06:27:22;18.90;99.90
16974;DHT22;8603;46.944;7.412;2023-07-31T06:29:48;19.40;99.90
16974;DHT22;8603;46.944;7.412;2023-07-31T06:32:14;19.30;99.90
16974;DHT22;8603;46.944;7.412;2023-07-31T06:34:39;19.30;99.90
16974;DHT22;8603;46.944;7.412;2023-07-31T06:37:05;19.50;99.90
16974;DHT22;8603;46.944;7.412;2023-07-31T06:39:31;19.70;99.90
16974;DHT22;8603;46.944;7.412;2023-07-31T06:41:56;19.60;99.90
16974;DHT22;8603;46.944;7.412;2023-07-31T06:44:22;20.00;99.90
16974;DHT22;8603;46.944;7.412;2023-07-31T06:46:47;20.90;99.90
16974;DHT22;8603;46.944;7.412;2023-07-31T06:49:13;21.80;99.90
16974;DHT22;8603;46.944;7.412;2023-07-31T06:51:40;22.80;99.90
16974;DHT22;8603;46.944;7.412;2023-07-31T06:54:07;22.70;99.90
16974;DHT22;8603;46.944;7.412;2023-07-31T06:56:33;24.20;99.90
16974;DHT22;8603;46.944;7.412;2023-07-31T06:58:58;26.20;99.90
16974;DHT22;8603;46.944;7.412;2023-07-31T07:01:24;28.00;99.90
16974;DHT22;8603;46.944;7.412;2023-07-31T07:03:49;29.60;99.90
16974;DHT22;8603;46.944;7.412;2023-07-31T07:06:19;30.30;98.30
16974;DHT22;8603;46.944;7.412;2023-07-31T07:08:45;31.40;96.10
16974;DHT22;8603;46.944;7.412;2023-07-31T07:11:11;32.40;94.00
16974;DHT22;8603;46.944;7.412;2023-07-31T07:13:36;33.80;92.00
16974;DHT22;8603;46.944;7.412;2023-07-31T07:16:02;34.80;89.70
16974;DHT22;8603;46.944;7.412;2023-07-31T07:18:27;35.50;85.30
16974;DHT22;8603;46.944;7.412;2023-07-31T07:20:54;36.50;81.00
16974;DHT22;8603;46.944;7.412;2023-07-31T07:23:20;37.30;76.60
16974;DHT22;8603;46.944;7.412;2023-07-31T07:25:47;38.50;74.70
16974;DHT22;8603;46.944;7.412;2023-07-31T07:28:13;39.30;70.40
16974;DHT22;8603;46.944;7.412;2023-07-31T07:30:39;38.90;68.00
16974;DHT22;8603;46.944;7.412;2023-07-31T07:33:05;37.90;69.20
16974;DHT22;8603;46.944;7.412;2023-07-31T07:35:33;37.60;68.70
16974;DHT22;8603;46.944;7.412;2023-07-31T07:38:02;35.80;70.80
16974;DHT22;8603;46.944;7.412;2023-07-31T07:40:27;36.90;69.50
16974;DHT22;8603;46.944;7.412;2023-07-31T07:42:53;37.30;68.30
16974;DHT22;8603;46.944;7.412;2023-07-31T07:45:18;37.70;67.70
16974;DHT22;8603;46.944;7.412;2023-07-31T07:47:44;37.50;66.70
16974;DHT22;8603;46.944;7.412;2023-07-31T07:50:10;36.10;67.20
16974;DHT22;8603;46.944;7.412;2023-07-31T07:52:35;35.20;69.30
16974;DHT22;8603;46.944;7.412;2023-07-31T07:55:01;35.80;69.20
16974;DHT22;8603;46.944;7.412;2023-07-31T07:57:27;37.30;68.00
16974;DHT22;8603;46.944;7.412;2023-07-31T07:59:53;37.10;67.00
16974;DHT22;8603;46.944;7.412;2023-07-31T08:02:18;38.40;66.70
16974;DHT22;8603;46.944;7.412;2023-07-31T08:04:44;39.70;64.30
16974;DHT22;8603;46.944;7.412;2023-07-31T08:07:13;40.60;62.80
16974;DHT22;8603;46.944;7.412;2023-07-31T08:09:38;41.10;60.40
16974;DHT22;8603;46.944;7.412;2023-07-31T08:12:05;40.70;60.00
16974;DHT22;8603;46.944;7.412;2023-07-31T08:14:31;41.20;59.90
16974;DHT22;8603;46.944;7.412;2023-07-31T08:16:56;41.90;58.60
16974;DHT22;8603;46.944;7.412;2023-07-31T08:19:22;42.50;56.80
16974;DHT22;8603;46.944;7.412;2023-07-31T08:21:48;42.60;56.70
16974;DHT22;8603;46.944;7.412;2023-07-31T08:24:13;42.90;56.30
16974;DHT22;8603;46.944;7.412;2023-07-31T08:26:39;43.20;56.60
16974;DHT22;8603;46.944;7.412;2023-07-31T08:29:04;43.60;55.20
16974;DHT22;8603;46.944;7.412;2023-07-31T08:31:30;43.70;54.60
16974;DHT22;8603;46.944;7.412;2023-07-31T08:33:56;43.30;53.70
16974;DHT22;8603;46.944;7.412;2023-07-31T08:36:22;43.50;53.30
16974;DHT22;8603;46.944;7.412;2023-07-31T08:38:47;43.30;53.60
16974;DHT22;8603;46.944;7.412;2023-07-31T08:41:15;43.30;53.80
16974;DHT22;8603;46.944;7.412;2023-07-31T08:43:44;43.20;53.70
16974;DHT22;8603;46.944;7.412;2023-07-31T08:46:10;43.00;54.30
16974;DHT22;8603;46.944;7.412;2023-07-31T08:48:37;43.20;53.60
16974;DHT22;8603;46.944;7.412;2023-07-31T08:51:03;43.00;52.60
16974;DHT22;8603;46.944;7.412;2023-07-31T08:53:29;42.90;53.80
16974;DHT22;8603;46.944;7.412;2023-07-31T08:55:56;42.10;53.90
16974;DHT22;8603;46.944;7.412;2023-07-31T08:58:24;41.60;55.10
16974;DHT22;8603;46.944;7.412;2023-07-31T09:00:51;41.30;55.20
16974;DHT22;8603;46.944;7.412;2023-07-31T09:03:18;41.80;55.40
16974;DHT22;8603;46.944;7.412;2023-07-31T09:05:45;42.20;53.10
16974;DHT22;8603;46.944;7.412;2023-07-31T09:08:13;41.30;54.30
16974;DHT22;8603;46.944;7.412;2023-07-31T09:10:41;39.90;55.50
16974;DHT22;8603;46.944;7.412;2023-07-31T09:13:07;38.70;56.10
16974;DHT22;8603;46.944;7.412;2023-07-31T09:15:33;38.00;56.80
16974;DHT22;8603;46.944;7.412;2023-07-31T09:18:01;38.40;56.40
16974;DHT22;8603;46.944;7.412;2023-07-31T09:20:27;38.90;55.30
16974;DHT22;8603;46.944;7.412;2023-07-31T09:22:53;38.90;56.10
16974;DHT22;8603;46.944;7.412;2023-07-31T09:25:23;38.60;57.30
16974;DHT22;8603;46.944;7.412;2023-07-31T09:28:03;38.90;56.80
16974;DHT22;8603;46.944;7.412;2023-07-31T09:30:29;39.70;55.70
16974;DHT22;8603;46.944;7.412;2023-07-31T09:33:06;40.20;54.90
16974;DHT22;8603;46.944;7.412;2023-07-31T09:35:36;39.90;56.40
16974;DHT22;8603;46.944;7.412;2023-07-31T09:40:38;39.50;54.10
16974;DHT22;8603;46.944;7.412;2023-07-31T09:43:06;38.70;55.40
16974;DHT22;8603;46.944;7.412;2023-07-31T09:45:36;37.90;56.50
16974;DHT22;8603;46.944;7.412;2023-07-31T09:48:03;37.60;56.30
16974;DHT22;8603;46.944;7.412;2023-07-31T09:50:29;36.90;55.50
16974;DHT22;8603;46.944;7.412;2023-07-31T09:52:55;36.10;56.50
16974;DHT22;8603;46.944;7.412;2023-07-31T09:55:21;35.20;56.90
16974;DHT22;8603;46.944;7.412;2023-07-31T09:57:48;33.90;57.20
16974;DHT22;8603;46.944;7.412;2023-07-31T10:00:16;32.70;58.70
16974;DHT22;8603;46.944;7.412;2023-07-31T10:02:45;32.00;60.50
16974;DHT22;8603;46.944;7.412;2023-07-31T10:05:15;31.50;61.20
16974;DHT22;8603;46.944;7.412;2023-07-31T10:07:51;31.20;62.00
16974;DHT22;8603;46.944;7.412;2023-07-31T10:10:18;31.00;62.90
16974;DHT22;8603;46.944;7.412;2023-07-31T10:12:45;30.50;63.60
16974;DHT22;8603;46.944;7.412;2023-07-31T10:15:11;30.10;62.30
16974;DHT22;8603;46.944;7.412;2023-07-31T10:17:38;29.60;63.80
16974;DHT22;8603;46.944;7.412;2023-07-31T10:20:04;28.90;66.40
16974;DHT22;8603;46.944;7.412;2023-07-31T10:22:31;28.40;66.00
16974;DHT22;8603;46.944;7.412;2023-07-31T10:24:58;28.10;66.80
16974;DHT22;8603;46.944;7.412;2023-07-31T10:27:24;27.90;67.60
16974;DHT22;8603;46.944;7.412;2023-07-31T10:29:52;28.00;69.00
16974;DHT22;8603;46.944;7.412;2023-07-31T10:32:19;28.10;70.00
16974;DHT22;8603;46.944;7.412;2023-07-31T10:34:46;28.00;68.80
16974;DHT22;8603;46.944;7.412;2023-07-31T10:40:02;27.90;75.10
16974;DHT22;8603;46.944;7.412;2023-07-31T10:42:30;27.90;71.10
16974;DHT22;8603;46.944;7.412;2023-07-31T10:45:04;27.90;72.30
16974;DHT22;8603;46.944;7.412;2023-07-31T10:47:30;28.00;72.20
16974;DHT22;8603;46.944;7.412;2023-07-31T10:52:52;27.50;70.20
16974;DHT22;8603;46.944;7.412;2023-07-31T10:55:33;27.00;71.40
16974;DHT22;8603;46.944;7.412;2023-07-31T10:58:09;26.80;70.70
16974;DHT22;8603;46.944;7.412;2023-07-31T11:00:41;26.60;70.70
16974;DHT22;8603;46.944;7.412;2023-07-31T11:03:13;26.50;71.00
16974;DHT22;8603;46.944;7.412;2023-07-31T11:05:49;26.50;72.20
16974;DHT22;8603;46.944;7.412;2023-07-31T11:10:45;26.40;72.40
16974;DHT22;8603;46.944;7.412;2023-07-31T11:13:11;26.30;74.10
16974;DHT22;8603;46.944;7.412;2023-07-31T11:15:37;26.30;74.10
16974;DHT22;8603;46.944;7.412;2023-07-31T11:18:03;26.30;74.80
16974;DHT22;8603;46.944;7.412;2023-07-31T11:20:34;26.30;75.10
16974;DHT22;8603;46.944;7.412;2023-07-31T11:23:02;26.50;75.10
16974;DHT22;8603;46.944;7.412;2023-07-31T11:25:29;26.60;73.10
16974;DHT22;8603;46.944;7.412;2023-07-31T11:27:55;26.70;73.50
16974;DHT22;8603;46.944;7.412;2023-07-31T11:30:21;26.70;73.40
16974;DHT22;8603;46.944;7.412;2023-07-31T11:32:47;26.80;74.30
16974;DHT22;8603;46.944;7.412;2023-07-31T11:35:13;26.90;74.70
16974;DHT22;8603;46.944;7.412;2023-07-31T11:37:42;26.80;72.20
16974;DHT22;8603;46.944;7.412;2023-07-31T11:40:08;26.60;71.70
16974;DHT22;8603;46.944;7.412;2023-07-31T11:42:37;26.60;73.40
16974;DHT22;8603;46.944;7.412;2023-07-31T11:45:08;26.50;73.00
16974;DHT22;8603;46.944;7.412;2023-07-31T11:47:35;26.60;74.80
16974;DHT22;8603;46.944;7.412;2023-07-31T11:50:03;26.60;72.00
16974;DHT22;8603;46.944;7.412;2023-07-31T11:52:31;26.60;73.70
16974;DHT22;8603;46.944;7.412;2023-07-31T11:54:59;26.50;73.50
16974;DHT22;8603;46.944;7.412;2023-07-31T11:57:25;26.40;73.00
16974;DHT22;8603;46.944;7.412;2023-07-31T11:59:51;26.30;71.60
16974;DHT22;8603;46.944;7.412;2023-07-31T12:02:18;26.20;72.40
16974;DHT22;8603;46.944;7.412;2023-07-31T12:04:44;26.20;71.40
16974;DHT22;8603;46.944;7.412;2023-07-31T12:07:10;26.20;73.20
16974;DHT22;8603;46.944;7.412;2023-07-31T12:09:37;26.10;72.40
16974;DHT22;8603;46.944;7.412;2023-07-31T12:12:08;26.10;70.30
16974;DHT22;8603;46.944;7.412;2023-07-31T12:14:34;26.00;71.20
16974;DHT22;8603;46.944;7.412;2023-07-31T12:17:04;26.00;68.90
16974;DHT22;8603;46.944;7.412;2023-07-31T12:19:30;26.00;66.60
16974;DHT22;8603;46.944;7.412;2023-07-31T12:21:56;25.90;67.70
16974;DHT22;8603;46.944;7.412;2023-07-31T12:24:23;26.00;70.20
16974;DHT22;8603;46.944;7.412;2023-07-31T12:26:49;26.10;70.80
16974;DHT22;8603;46.944;7.412;2023-07-31T12:29:14;26.30;72.90
16974;DHT22;8603;46.944;7.412;2023-07-31T12:31:43;26.50;67.20
16974;DHT22;8603;46.944;7.412;2023-07-31T12:34:20;26.60;67.70
16974;DHT22;8603;46.944;7.412;2023-07-31T12:36:49;26.70;65.70
16974;DHT22;8603;46.944;7.412;2023-07-31T12:39:15;26.70;65.10
16974;DHT22;8603;46.944;7.412;2023-07-31T12:41:40;26.60;66.40
16974;DHT22;8603;46.944;7.412;2023-07-31T12:44:06;26.60;66.90
16974;DHT22;8603;46.944;7.412;2023-07-31T12:46:31;26.60;67.20
16974;DHT22;8603;46.944;7.412;2023-07-31T12:48:57;26.50;66.40
16974;DHT22;8603;46.944;7.412;2023-07-31T12:51:22;26.50;69.00
16974;DHT22;8603;46.944;7.412;2023-07-31T12:53:48;26.40;68.20
16974;DHT22;8603;46.944;7.412;2023-07-31T12:56:13;26.40;67.40
16974;DHT22;8603;46.944;7.412;2023-07-31T12:58:42;26.30;69.20
16974;DHT22;8603;46.944;7.412;2023-07-31T13:01:08;26.30;71.40
16974;DHT22;8603;46.944;7.412;2023-07-31T13:03:33;26.20;69.90
16974;DHT22;8603;46.944;7.412;2023-07-31T13:05:59;26.30;71.60
16974;DHT22;8603;46.944;7.412;2023-07-31T13:08:24;26.40;68.40
16974;DHT22;8603;46.944;7.412;2023-07-31T13:10:50;26.50;68.20
16974;DHT22;8603;46.944;7.412;2023-07-31T13:13:15;26.70;69.10
16974;DHT22;8603;46.944;7.412;2023-07-31T13:15:41;26.90;67.70
16974;DHT22;8603;46.944;7.412;2023-07-31T13:18:07;27.10;67.10
16974;DHT22;8603;46.944;7.412;2023-07-31T13:20:32;27.20;71.10
16974;DHT22;8603;46.944;7.412;2023-07-31T13:22:58;27.40;68.00
16974;DHT22;8603;46.944;7.412;2023-07-31T13:25:23;27.50;68.80
16974;DHT22;8603;46.944;7.412;2023-07-31T13:27:49;27.60;67.40
16974;DHT22;8603;46.944;7.412;2023-07-31T13:30:14;27.60;66.70
16974;DHT22;8603;46.944;7.412;2023-07-31T13:32:40;27.60;66.20
16974;DHT22;8603;46.944;7.412;2023-07-31T13:35:06;27.60;66.30
16974;DHT22;8603;46.944;7.412;2023-07-31T13:37:32;27.60;66.90
16974;DHT22;8603;46.944;7.412;2023-07-31T13:39:57;27.70;64.40
16974;DHT22;8603;46.944;7.412;2023-07-31T13:42:23;27.90;64.10
16974;DHT22;8603;46.944;7.412;2023-07-31T13:44:49;28.10;65.40
16974;DHT22;8603;46.944;7.412;2023-07-31T13:47:14;28.20;65.70
16974;DHT22;8603;46.944;7.412;2023-07-31T13:49:40;28.20;67.40
16974;DHT22;8603;46.944;7.412;2023-07-31T13:52:08;28.20;66.60
16974;DHT22;8603;46.944;7.412;2023-07-31T13:54:34;28.30;67.80
16974;DHT22;8603;46.944;7.412;2023-07-31T13:57:00;28.20;67.70
16974;DHT22;8603;46.944;7.412;2023-07-31T13:59:25;28.20;68.30
16974;DHT22;8603;46.944;7.412;2023-07-31T14:01:51;28.30;69.40
16974;DHT22;8603;46.944;7.412;2023-07-31T14:04:17;28.30;69.50
16974;DHT22;8603;46.944;7.412;2023-07-31T14:06:43;28.40;69.20
16974;DHT22;8603;46.944;7.412;2023-07-31T14:09:09;28.30;70.30
16974;DHT22;8603;46.944;7.412;2023-07-31T14:11:35;28.30;68.10
16974;DHT22;8603;46.944;7.412;2023-07-31T14:14:00;28.40;68.20
16974;DHT22;8603;46.944;7.412;2023-07-31T14:16:27;28.40;70.80
16974;DHT22;8603;46.944;7.412;2023-07-31T14:18:53;28.40;71.00
16974;DHT22;8603;46.944;7.412;2023-07-31T14:21:19;28.40;71.00
16974;DHT22;8603;46.944;7.412;2023-07-31T14:23:45;28.40;70.80
16974;DHT22;8603;46.944;7.412;2023-07-31T14:26:11;28.40;70.20
16974;DHT22;8603;46.944;7.412;2023-07-31T14:28:37;28.50;70.90
16974;DHT22;8603;46.944;7.412;2023-07-31T14:31:03;28.50;70.00
16974;DHT22;8603;46.944;7.412;2023-07-31T14:33:28;28.40;68.40
16974;DHT22;8603;46.944;7.412;2023-07-31T14:35:54;28.30;69.00
16974;DHT22;8603;46.944;7.412;2023-07-31T14:38:19;28.10;69.30
16974;DHT22;8603;46.944;7.412;2023-07-31T14:40:45;28.00;69.80
16974;DHT22;8603;46.944;7.412;2023-07-31T14:43:10;27.90;69.90
16974;DHT22;8603;46.944;7.412;2023-07-31T14:45:36;27.80;71.30
16974;DHT22;8603;46.944;7.412;2023-07-31T14:48:02;27.90;70.90
16974;DHT22;8603;46.944;7.412;2023-07-31T14:50:28;28.00;71.30
16974;DHT22;8603;46.944;7.412;2023-07-31T14:52:53;28.00;70.00
16974;DHT22;8603;46.944;7.412;2023-07-31T14:55:19;28.10;70.00
16974;DHT22;8603;46.944;7.412;2023-07-31T14:57:45;28.00;70.40
16974;DHT22;8603;46.944;7.412;2023-07-31T15:00:10;28.00;70.50
16974;DHT22;8603;46.944;7.412;2023-07-31T15:02:37;28.00;70.30
16974;DHT22;8603;46.944;7.412;2023-07-31T15:05:03;28.10;70.80
16974;DHT22;8603;46.944;7.412;2023-07-31T15:07:29;28.10;71.80
16974;DHT22;8603;46.944;7.412;2023-07-31T15:09:54;28.00;69.50
16974;DHT22;8603;46.944;7.412;2023-07-31T15:12:20;28.10;70.30
16974;DHT22;8603;46.944;7.412;2023-07-31T15:14:46;28.30;72.60
16974;DHT22;8603;46.944;7.412;2023-07-31T15:17:11;28.20;73.10
16974;DHT22;8603;46.944;7.412;2023-07-31T15:19:37;28.10;71.00
16974;DHT22;8603;46.944;7.412;2023-07-31T15:22:03;28.10;71.00
16974;DHT22;8603;46.944;7.412;2023-07-31T15:24:29;28.20;72.00
16974;DHT22;8603;46.944;7.412;2023-07-31T15:26:54;28.20;71.70
16974;DHT22;8603;46.944;7.412;2023-07-31T15:29:21;28.30;71.90
16974;DHT22;8603;46.944;7.412;2023-07-31T15:31:48;28.30;72.80
16974;DHT22;8603;46.944;7.412;2023-07-31T15:34:14;28.20;72.30
16974;DHT22;8603;46.944;7.412;2023-07-31T15:36:40;28.20;72.00
16974;DHT22;8603;46.944;7.412;2023-07-31T15:39:06;28.20;73.20
16974;DHT22;8603;46.944;7.412;2023-07-31T15:41:37;28.20;73.30
16974;DHT22;8603;46.944;7.412;2023-07-31T15:44:04;28.20;72.50
16974;DHT22;8603;46.944;7.412;2023-07-31T15:46:30;28.30;72.50
16974;DHT22;8603;46.944;7.412;2023-07-31T15:48:55;28.40;71.50
16974;DHT22;8603;46.944;7.412;2023-07-31T15:51:23;28.30;72.30
16974;DHT22;8603;46.944;7.412;2023-07-31T15:53:49;28.20;72.60
16974;DHT22;8603;46.944;7.412;2023-07-31T15:56:14;28.10;73.20